sensor_id;sensor_type;location;lat;lon;timestamp;P1;durP1;ratioP1;P2;durP2;ratioP2
22837;SDS011;11585;51.450;-0.240;2023-12-20T00:03:30;0.90;;;0.90;;
22837;SDS011;11585;51.450;-0.240;2023-12-20T00:05:56;0.85;;;0.85;;
22837;SDS011;11585;51.450;-0.240;2023-12-20T00:08:21;0.90;;;0.90;;
22837;SDS011;11585;51.450;-0.240;2023-12-20T00:13:34;0.90;;;0.90;;
22837;SDS011;11585;51.450;-0.240;2023-12-20T00:15:59;0.90;;;0.90;;
22837;SDS011;11585;51.450;-0.240;2023-12-20T00:18:25;0.90;;;0.90;;
22837;SDS011;11585;51.450;-0.240;2023-12-20T00:20:52;0.90;;;0.90;;
22837;SDS011;11585;51.450;-0.240;2023-12-20T00:23:18;0.90;;;0.90;;
22837;SDS011;11585;51.450;-0.240;2023-12-20T00:25:43;0.90;;;0.90;;
22837;SDS011;11585;51.450;-0.240;2023-12-20T00:28:09;0.80;;;0.80;;
22837;SDS011;11585;51.450;-0.240;2023-12-20T00:33:21;0.80;;;0.80;;
22837;SDS011;11585;51.450;-0.240;2023-12-20T00:35:47;0.80;;;0.80;;
22837;SDS011;11585;51.450;-0.240;2023-12-20T00:38:13;0.90;;;0.90;;
22837;SDS011;11585;51.450;-0.240;2023-12-20T00:43:08;0.90;;;0.90;;
22837;SDS011;11585;51.450;-0.240;2023-12-20T00:45:34;0.90;;;0.90;;
22837;SDS011;11585;51.450;-0.240;2023-12-20T00:48:00;0.80;;;0.80;;
22837;SDS011;11585;51.450;-0.240;2023-12-20T00:50:25;0.90;;;0.90;;
22837;SDS011;11585;51.450;-0.240;2023-12-20T00:52:51;0.90;;;0.90;;
22837;SDS011;11585;51.450;-0.240;2023-12-20T00:55:17;0.90;;;0.90;;
22837;SDS011;11585;51.450;-0.240;2023-12-20T00:57:43;1.00;;;1.00;;
22837;SDS011;11585;51.450;-0.240;2023-12-20T01:02:54;0.93;;;0.93;;
22837;SDS011;11585;51.450;-0.240;2023-12-20T01:05:20;1.00;;;1.00;;
22837;SDS011;11585;51.450;-0.240;2023-12-20T01:07:48;0.90;;;0.90;;
22837;SDS011;11585;51.450;-0.240;2023-12-20T01:10:14;0.90;;;0.90;;
22837;SDS011;11585;51.450;-0.240;2023-12-20T01:12:40;0.90;;;0.90;;
22837;SDS011;11585;51.450;-0.240;2023-12-20T01:15:06;0.90;;;0.90;;
22837;SDS011;11585;51.450;-0.240;2023-12-20T01:17:31;0.98;;;0.98;;
22837;SDS011;11585;51.450;-0.240;2023-12-20T01:19:59;1.00;;;1.00;;
22837;SDS011;11585;51.450;-0.240;2023-12-20T01:22:25;1.00;;;1.00;;
22837;SDS011;11585;51.450;-0.240;2023-12-20T01:24:51;1.00;;;1.00;;
22837;SDS011;11585;51.450;-0.240;2023-12-20T01:27:17;0.98;;;0.98;;
22837;SDS011;11585;51.450;-0.240;2023-12-20T01:29:43;0.90;;;0.90;;
22837;SDS011;11585;51.450;-0.240;2023-12-20T01:32:08;0.90;;;0.90;;
22837;SDS011;11585;51.450;-0.240;2023-12-20T01:34:34;0.90;;;0.90;;
22837;SDS011;11585;51.450;-0.240;2023-12-20T01:37:00;0.90;;;0.90;;
22837;SDS011;11585;51.450;-0.240;2023-12-20T01:39:27;1.00;;;1.00;;
22837;SDS011;11585;51.450;-0.240;2023-12-20T01:41:53;1.00;;;1.00;;
22837;SDS011;11585;51.450;-0.240;2023-12-20T01:44:19;1.00;;;1.00;;
22837;SDS011;11585;51.450;-0.240;2023-12-20T01:46:45;1.00;;;1.00;;
22837;SDS011;11585;51.450;-0.240;2023-12-20T01:49:13;1.00;;;1.00;;
22837;SDS011;11585;51.450;-0.240;2023-12-20T01:51:40;1.00;;;1.00;;
22837;SDS011;11585;51.450;-0.240;2023-12-20T01:54:06;1.00;;;1.00;;
22837;SDS011;11585;51.450;-0.240;2023-12-20T01:56:32;1.00;;;1.00;;
22837;SDS011;11585;51.450;-0.240;2023-12-20T01:58:58;1.00;;;1.00;;
22837;SDS011;11585;51.450;-0.240;2023-12-20T02:01:26;0.98;;;0.98;;
22837;SDS011;11585;51.450;-0.240;2023-12-20T02:03:53;1.00;;;1.00;;
22837;SDS011;11585;51.450;-0.240;2023-12-20T02:06:20;0.90;;;0.90;;
22837;SDS011;11585;51.450;-0.240;2023-12-20T02:08:50;1.00;;;1.00;;
22837;SDS011;11585;51.450;-0.240;2023-12-20T02:11:16;1.00;;;1.00;;
22837;SDS011;11585;51.450;-0.240;2023-12-20T02:13:42;1.00;;;1.00;;
22837;SDS011;11585;51.450;-0.240;2023-12-20T02:16:08;1.00;;;1.00;;
22837;SDS011;11585;51.450;-0.240;2023-12-20T02:18:34;0.93;;;0.93;;
22837;SDS011;11585;51.450;-0.240;2023-12-20T02:24:03;1.00;;;1.00;;
22837;SDS011;11585;51.450;-0.240;2023-12-20T02:26:29;1.00;;;1.00;;
22837;SDS011;11585;51.450;-0.240;2023-12-20T02:32:20;1.00;;;1.00;;
22837;SDS011;11585;51.450;-0.240;2023-12-20T02:34:48;1.00;;;1.00;;
22837;SDS011;11585;51.450;-0.240;2023-12-20T02:37:14;1.00;;;1.00;;
22837;SDS011;11585;51.450;-0.240;2023-12-20T02:39:41;1.00;;;1.00;;
22837;SDS011;11585;51.450;-0.240;2023-12-20T02:42:07;1.00;;;1.00;;
22837;SDS011;11585;51.450;-0.240;2023-12-20T02:44:32;1.00;;;1.00;;
22837;SDS011;11585;51.450;-0.240;2023-12-20T02:46:58;1.00;;;1.00;;
22837;SDS011;11585;51.450;-0.240;2023-12-20T02:52:28;1.00;;;1.00;;
22837;SDS011;11585;51.450;-0.240;2023-12-20T02:54:54;1.00;;;1.00;;
22837;SDS011;11585;51.450;-0.240;2023-12-20T02:57:19;1.10;;;1.10;;
22837;SDS011;11585;51.450;-0.240;2023-12-20T02:59:45;1.10;;;1.10;;
22837;SDS011;11585;51.450;-0.240;2023-12-20T03:02:11;1.00;;;1.00;;
22837;SDS011;11585;51.450;-0.240;2023-12-20T03:04:37;1.00;;;1.00;;
22837;SDS011;11585;51.450;-0.240;2023-12-20T03:07:02;1.00;;;1.00;;
22837;SDS011;11585;51.450;-0.240;2023-12-20T03:12:33;1.00;;;1.00;;
22837;SDS011;11585;51.450;-0.240;2023-12-20T03:14:58;0.95;;;0.95;;
22837;SDS011;11585;51.450;-0.240;2023-12-20T03:17:24;1.00;;;1.00;;
22837;SDS011;11585;51.450;-0.240;2023-12-20T03:22:59;1.00;;;1.00;;
22837;SDS011;11585;51.450;-0.240;2023-12-20T03:25:27;0.98;;;0.98;;
22837;SDS011;11585;51.450;-0.240;2023-12-20T03:27:53;1.00;;;1.00;;
22837;SDS011;11585;51.450;-0.240;2023-12-20T03:33:27;1.00;;;1.00;;
22837;SDS011;11585;51.450;-0.240;2023-12-20T03:35:53;1.00;;;1.00;;
22837;SDS011;11585;51.450;-0.240;2023-12-20T03:38:20;1.00;;;1.00;;
22837;SDS011;11585;51.450;-0.240;2023-12-20T03:40:47;1.00;;;1.00;;
22837;SDS011;11585;51.450;-0.240;2023-12-20T03:43:13;1.00;;;1.00;;
22837;SDS011;11585;51.450;-0.240;2023-12-20T03:45:42;1.00;;;1.00;;
22837;SDS011;11585;51.450;-0.240;2023-12-20T03:48:08;1.10;;;1.10;;
22837;SDS011;11585;51.450;-0.240;2023-12-20T03:50:34;1.00;;;1.00;;
22837;SDS011;11585;51.450;-0.240;2023-12-20T03:53:00;0.90;;;0.90;;
22837;SDS011;11585;51.450;-0.240;2023-12-20T03:55:26;1.00;;;1.00;;
22837;SDS011;11585;51.450;-0.240;2023-12-20T03:57:52;1.00;;;1.00;;
22837;SDS011;11585;51.450;-0.240;2023-12-20T04:03:03;1.00;;;1.00;;
22837;SDS011;11585;51.450;-0.240;2023-12-20T04:05:29;1.00;;;1.00;;
22837;SDS011;11585;51.450;-0.240;2023-12-20T04:07:55;1.00;;;1.00;;
22837;SDS011;11585;51.450;-0.240;2023-12-20T04:13:43;1.00;;;1.00;;
22837;SDS011;11585;51.450;-0.240;2023-12-20T04:16:08;1.00;;;1.00;;
22837;SDS011;11585;51.450;-0.240;2023-12-20T04:18:34;0.90;;;0.90;;
22837;SDS011;11585;51.450;-0.240;2023-12-20T04:21:01;0.90;;;0.90;;
22837;SDS011;11585;51.450;-0.240;2023-12-20T04:23:27;1.00;;;1.00;;
22837;SDS011;11585;51.450;-0.240;2023-12-20T04:25:53;1.00;;;1.00;;
22837;SDS011;11585;51.450;-0.240;2023-12-20T04:28:19;1.00;;;1.00;;
22837;SDS011;11585;51.450;-0.240;2023-12-20T04:33:32;1.00;;;1.00;;
22837;SDS011;11585;51.450;-0.240;2023-12-20T04:35:57;1.10;;;1.10;;
22837;SDS011;11585;51.450;-0.240;2023-12-20T04:38:24;1.00;;;1.00;;
22837;SDS011;11585;51.450;-0.240;2023-12-20T04:40:51;1.00;;;1.00;;
22837;SDS011;11585;51.450;-0.240;2023-12-20T04:43:17;0.95;;;0.95;;
22837;SDS011;11585;51.450;-0.240;2023-12-20T04:45:42;1.00;;;1.00;;
22837;SDS011;11585;51.450;-0.240;2023-12-20T04:48:08;1.00;;;1.00;;
22837;SDS011;11585;51.450;-0.240;2023-12-20T04:53:19;1.00;;;1.00;;
22837;SDS011;11585;51.450;-0.240;2023-12-20T04:55:45;1.00;;;1.00;;
22837;SDS011;11585;51.450;-0.240;2023-12-20T04:58:11;1.00;;;1.00;;
22837;SDS011;11585;51.450;-0.240;2023-12-20T05:03:42;1.00;;;1.00;;
22837;SDS011;11585;51.450;-0.240;2023-12-20T05:06:08;1.00;;;1.00;;
22837;SDS011;11585;51.450;-0.240;2023-12-20T05:08:35;1.00;;;1.00;;
22837;SDS011;11585;51.450;-0.240;2023-12-20T05:13:46;1.00;;;1.00;;
22837;SDS011;11585;51.450;-0.240;2023-12-20T05:16:12;1.00;;;1.00;;
22837;SDS011;11585;51.450;-0.240;2023-12-20T05:18:39;1.00;;;1.00;;
22837;SDS011;11585;51.450;-0.240;2023-12-20T05:23:34;0.90;;;0.90;;
22837;SDS011;11585;51.450;-0.240;2023-12-20T05:26:00;0.90;;;0.90;;
22837;SDS011;11585;51.450;-0.240;2023-12-20T05:28:25;1.00;;;1.00;;
22837;SDS011;11585;51.450;-0.240;2023-12-20T05:34:00;1.00;;;1.00;;
22837;SDS011;11585;51.450;-0.240;2023-12-20T05:36:25;1.10;;;1.10;;
22837;SDS011;11585;51.450;-0.240;2023-12-20T05:38:51;1.00;;;1.00;;
22837;SDS011;11585;51.450;-0.240;2023-12-20T05:41:18;0.90;;;0.90;;
22837;SDS011;11585;51.450;-0.240;2023-12-20T05:43:43;0.90;;;0.90;;
22837;SDS011;11585;51.450;-0.240;2023-12-20T05:46:10;1.00;;;1.00;;
22837;SDS011;11585;51.450;-0.240;2023-12-20T05:48:37;1.00;;;1.00;;
22837;SDS011;11585;51.450;-0.240;2023-12-20T05:51:04;1.00;;;1.00;;
22837;SDS011;11585;51.450;-0.240;2023-12-20T05:53:30;0.98;;;0.98;;
22837;SDS011;11585;51.450;-0.240;2023-12-20T05:55:55;1.00;;;1.00;;
22837;SDS011;11585;51.450;-0.240;2023-12-20T05:58:21;1.02;;;1.02;;
22837;SDS011;11585;51.450;-0.240;2023-12-20T06:03:33;1.00;;;1.00;;
22837;SDS011;11585;51.450;-0.240;2023-12-20T06:05:59;0.90;;;0.90;;
22837;SDS011;11585;51.450;-0.240;2023-12-20T06:08:29;0.90;;;0.90;;
22837;SDS011;11585;51.450;-0.240;2023-12-20T06:10:57;1.00;;;1.00;;
22837;SDS011;11585;51.450;-0.240;2023-12-20T06:13:22;1.00;;;1.00;;
22837;SDS011;11585;51.450;-0.240;2023-12-20T06:15:48;1.00;;;1.00;;
22837;SDS011;11585;51.450;-0.240;2023-12-20T06:18:14;1.00;;;1.00;;
22837;SDS011;11585;51.450;-0.240;2023-12-20T06:20:40;1.00;;;1.00;;
22837;SDS011;11585;51.450;-0.240;2023-12-20T06:23:06;1.00;;;1.00;;
22837;SDS011;11585;51.450;-0.240;2023-12-20T06:25:32;1.00;;;1.00;;
22837;SDS011;11585;51.450;-0.240;2023-12-20T06:27:57;1.10;;;1.10;;
22837;SDS011;11585;51.450;-0.240;2023-12-20T06:30:24;1.00;;;1.00;;
22837;SDS011;11585;51.450;-0.240;2023-12-20T06:32:50;1.10;;;1.10;;
22837;SDS011;11585;51.450;-0.240;2023-12-20T06:35:16;1.02;;;1.02;;
22837;SDS011;11585;51.450;-0.240;2023-12-20T06:37:41;1.02;;;1.02;;
22837;SDS011;11585;51.450;-0.240;2023-12-20T06:42:37;1.00;;;1.00;;
22837;SDS011;11585;51.450;-0.240;2023-12-20T06:45:03;1.00;;;1.00;;
22837;SDS011;11585;51.450;-0.240;2023-12-20T06:47:29;1.00;;;1.00;;
22837;SDS011;11585;51.450;-0.240;2023-12-20T06:49:56;1.00;;;1.00;;
22837;SDS011;11585;51.450;-0.240;2023-12-20T06:52:22;1.00;;;1.00;;
22837;SDS011;11585;51.450;-0.240;2023-12-20T06:54:47;1.00;;;1.00;;
22837;SDS011;11585;51.450;-0.240;2023-12-20T06:57:13;1.00;;;1.00;;
22837;SDS011;11585;51.450;-0.240;2023-12-20T06:59:40;1.00;;;1.00;;
22837;SDS011;11585;51.450;-0.240;2023-12-20T07:02:06;0.90;;;0.90;;
22837;SDS011;11585;51.450;-0.240;2023-12-20T07:04:31;1.00;;;1.00;;
22837;SDS011;11585;51.450;-0.240;2023-12-20T07:06:57;0.90;;;0.90;;
22837;SDS011;11585;51.450;-0.240;2023-12-20T07:12:47;0.90;;;0.90;;
22837;SDS011;11585;51.450;-0.240;2023-12-20T07:15:14;1.00;;;1.00;;
22837;SDS011;11585;51.450;-0.240;2023-12-20T07:17:39;0.90;;;0.90;;
22837;SDS011;11585;51.450;-0.240;2023-12-20T07:22:50;1.05;;;1.05;;
22837;SDS011;11585;51.450;-0.240;2023-12-20T07:25:15;1.00;;;1.00;;
22837;SDS011;11585;51.450;-0.240;2023-12-20T07:27:41;1.00;;;1.00;;
22837;SDS011;11585;51.450;-0.240;2023-12-20T07:30:08;1.00;;;1.00;;
22837;SDS011;11585;51.450;-0.240;2023-12-20T07:32:34;1.00;;;1.00;;
22837;SDS011;11585;51.450;-0.240;2023-12-20T07:35:00;1.10;;;1.10;;
22837;SDS011;11585;51.450;-0.240;2023-12-20T07:37:26;0.90;;;0.90;;
22837;SDS011;11585;51.450;-0.240;2023-12-20T07:39:52;1.00;;;1.00;;
22837;SDS011;11585;51.450;-0.240;2023-12-20T07:42:17;1.00;;;1.00;;
22837;SDS011;11585;51.450;-0.240;2023-12-20T07:44:43;1.00;;;1.00;;
22837;SDS011;11585;51.450;-0.240;2023-12-20T07:47:09;1.00;;;1.00;;
22837;SDS011;11585;51.450;-0.240;2023-12-20T07:52:04;0.90;;;0.90;;
22837;SDS011;11585;51.450;-0.240;2023-12-20T07:54:30;0.98;;;0.98;;
22837;SDS011;11585;51.450;-0.240;2023-12-20T07:56:56;1.00;;;1.00;;
22837;SDS011;11585;51.450;-0.240;2023-12-20T07:59:24;0.90;;;0.90;;
22837;SDS011;11585;51.450;-0.240;2023-12-20T08:01:50;1.00;;;1.00;;
22837;SDS011;11585;51.450;-0.240;2023-12-20T08:04:16;1.00;;;1.00;;
22837;SDS011;11585;51.450;-0.240;2023-12-20T08:06:41;0.90;;;0.90;;
22837;SDS011;11585;51.450;-0.240;2023-12-20T08:11:53;1.00;;;1.00;;
22837;SDS011;11585;51.450;-0.240;2023-12-20T08:14:18;1.00;;;1.00;;
22837;SDS011;11585;51.450;-0.240;2023-12-20T08:16:44;1.00;;;1.00;;
22837;SDS011;11585;51.450;-0.240;2023-12-20T08:19:11;0.90;;;0.90;;
22837;SDS011;11585;51.450;-0.240;2023-12-20T08:21:37;1.00;;;1.00;;
22837;SDS011;11585;51.450;-0.240;2023-12-20T08:24:03;0.90;;;0.90;;
22837;SDS011;11585;51.450;-0.240;2023-12-20T08:26:28;1.00;;;1.00;;
22837;SDS011;11585;51.450;-0.240;2023-12-20T08:28:54;1.00;;;1.00;;
22837;SDS011;11585;51.450;-0.240;2023-12-20T08:31:20;1.00;;;1.00;;
22837;SDS011;11585;51.450;-0.240;2023-12-20T08:33:46;1.00;;;1.00;;
22837;SDS011;11585;51.450;-0.240;2023-12-20T08:36:13;0.98;;;0.98;;
22837;SDS011;11585;51.450;-0.240;2023-12-20T08:38:39;1.00;;;1.00;;
22837;SDS011;11585;51.450;-0.240;2023-12-20T08:43:52;1.00;;;1.00;;
22837;SDS011;11585;51.450;-0.240;2023-12-20T08:46:18;0.80;;;0.80;;
22837;SDS011;11585;51.450;-0.240;2023-12-20T08:48:43;0.90;;;0.90;;
22837;SDS011;11585;51.450;-0.240;2023-12-20T08:51:10;0.90;;;0.90;;
22837;SDS011;11585;51.450;-0.240;2023-12-20T08:53:35;1.00;;;1.00;;
22837;SDS011;11585;51.450;-0.240;2023-12-20T08:56:01;0.90;;;0.90;;
22837;SDS011;11585;51.450;-0.240;2023-12-20T08:58:27;1.00;;;1.00;;
22837;SDS011;11585;51.450;-0.240;2023-12-20T09:00:55;0.90;;;0.90;;
22837;SDS011;11585;51.450;-0.240;2023-12-20T09:03:22;0.90;;;0.90;;
22837;SDS011;11585;51.450;-0.240;2023-12-20T09:05:48;0.80;;;0.80;;
22837;SDS011;11585;51.450;-0.240;2023-12-20T09:08:13;0.90;;;0.90;;
22837;SDS011;11585;51.450;-0.240;2023-12-20T09:13:25;0.90;;;0.90;;
22837;SDS011;11585;51.450;-0.240;2023-12-20T09:15:54;0.90;;;0.90;;
22837;SDS011;11585;51.450;-0.240;2023-12-20T09:18:20;0.90;;;0.90;;
22837;SDS011;11585;51.450;-0.240;2023-12-20T09:20:48;0.82;;;0.82;;
22837;SDS011;11585;51.450;-0.240;2023-12-20T09:23:14;0.90;;;0.90;;
22837;SDS011;11585;51.450;-0.240;2023-12-20T09:25:40;0.90;;;0.90;;
22837;SDS011;11585;51.450;-0.240;2023-12-20T09:28:05;0.80;;;0.80;;
22837;SDS011;11585;51.450;-0.240;2023-12-20T09:33:36;0.90;;;0.90;;
22837;SDS011;11585;51.450;-0.240;2023-12-20T09:36:01;0.80;;;0.80;;
22837;SDS011;11585;51.450;-0.240;2023-12-20T09:38:27;0.80;;;0.80;;
22837;SDS011;11585;51.450;-0.240;2023-12-20T09:43:42;0.80;;;0.80;;
22837;SDS011;11585;51.450;-0.240;2023-12-20T09:46:08;0.90;;;0.90;;
22837;SDS011;11585;51.450;-0.240;2023-12-20T09:48:37;0.90;;;0.90;;
22837;SDS011;11585;51.450;-0.240;2023-12-20T09:54:10;0.90;;;0.90;;
22837;SDS011;11585;51.450;-0.240;2023-12-20T09:56:36;0.90;;;0.90;;
22837;SDS011;11585;51.450;-0.240;2023-12-20T09:59:03;0.90;;;0.90;;
22837;SDS011;11585;51.450;-0.240;2023-12-20T10:01:29;0.80;;;0.80;;
22837;SDS011;11585;51.450;-0.240;2023-12-20T10:03:56;0.90;;;0.90;;
22837;SDS011;11585;51.450;-0.240;2023-12-20T10:06:23;0.90;;;0.90;;
22837;SDS011;11585;51.450;-0.240;2023-12-20T10:08:49;0.88;;;0.88;;
22837;SDS011;11585;51.450;-0.240;2023-12-20T10:11:15;0.90;;;0.90;;
22837;SDS011;11585;51.450;-0.240;2023-12-20T10:13:40;0.90;;;0.90;;
22837;SDS011;11585;51.450;-0.240;2023-12-20T10:16:06;0.90;;;0.90;;
22837;SDS011;11585;51.450;-0.240;2023-12-20T10:18:32;0.80;;;0.80;;
22837;SDS011;11585;51.450;-0.240;2023-12-20T10:24:29;0.80;;;0.80;;
22837;SDS011;11585;51.450;-0.240;2023-12-20T10:27:04;0.90;;;0.90;;
22837;SDS011;11585;51.450;-0.240;2023-12-20T10:29:34;0.80;;;0.80;;
22837;SDS011;11585;51.450;-0.240;2023-12-20T10:32:21;0.80;;;0.80;;
22837;SDS011;11585;51.450;-0.240;2023-12-20T10:34:51;0.90;;;0.90;;
22837;SDS011;11585;51.450;-0.240;2023-12-20T10:37:17;0.80;;;0.80;;
22837;SDS011;11585;51.450;-0.240;2023-12-20T10:39:47;0.80;;;0.80;;
22837;SDS011;11585;51.450;-0.240;2023-12-20T10:42:14;0.80;;;0.80;;
22837;SDS011;11585;51.450;-0.240;2023-12-20T10:44:41;0.80;;;0.80;;
22837;SDS011;11585;51.450;-0.240;2023-12-20T10:47:07;0.80;;;0.80;;
22837;SDS011;11585;51.450;-0.240;2023-12-20T10:52:58;0.80;;;0.80;;
22837;SDS011;11585;51.450;-0.240;2023-12-20T10:55:24;0.80;;;0.80;;
22837;SDS011;11585;51.450;-0.240;2023-12-20T10:57:51;0.77;;;0.77;;
22837;SDS011;11585;51.450;-0.240;2023-12-20T11:00:18;0.80;;;0.80;;
22837;SDS011;11585;51.450;-0.240;2023-12-20T11:02:44;0.80;;;0.80;;
22837;SDS011;11585;51.450;-0.240;2023-12-20T11:05:15;0.80;;;0.80;;
22837;SDS011;11585;51.450;-0.240;2023-12-20T11:07:49;0.80;;;0.80;;
22837;SDS011;11585;51.450;-0.240;2023-12-20T11:13:22;0.82;;;0.82;;
22837;SDS011;11585;51.450;-0.240;2023-12-20T11:15:51;0.80;;;0.80;;
22837;SDS011;11585;51.450;-0.240;2023-12-20T11:18:17;0.80;;;0.80;;
22837;SDS011;11585;51.450;-0.240;2023-12-20T11:20:44;0.80;;;0.80;;
22837;SDS011;11585;51.450;-0.240;2023-12-20T11:23:10;0.80;;;0.80;;
22837;SDS011;11585;51.450;-0.240;2023-12-20T11:25:55;0.90;;;0.90;;
22837;SDS011;11585;51.450;-0.240;2023-12-20T11:28:24;0.80;;;0.80;;
22837;SDS011;11585;51.450;-0.240;2023-12-20T11:33:39;0.80;;;0.80;;
22837;SDS011;11585;51.450;-0.240;2023-12-20T11:36:14;0.80;;;0.80;;
22837;SDS011;11585;51.450;-0.240;2023-12-20T11:41:25;0.70;;;0.70;;
22837;SDS011;11585;51.450;-0.240;2023-12-20T11:43:54;0.80;;;0.80;;
22837;SDS011;11585;51.450;-0.240;2023-12-20T11:46:21;0.80;;;0.80;;
22837;SDS011;11585;51.450;-0.240;2023-12-20T11:48:47;0.80;;;0.80;;
22837;SDS011;11585;51.450;-0.240;2023-12-20T11:51:13;0.80;;;0.80;;
22837;SDS011;11585;51.450;-0.240;2023-12-20T11:53:40;0.75;;;0.75;;
22837;SDS011;11585;51.450;-0.240;2023-12-20T11:56:07;0.80;;;0.80;;
22837;SDS011;11585;51.450;-0.240;2023-12-20T11:58:33;0.80;;;0.80;;
22837;SDS011;11585;51.450;-0.240;2023-12-20T12:04:21;0.80;;;0.80;;
22837;SDS011;11585;51.450;-0.240;2023-12-20T12:06:47;0.80;;;0.80;;
22837;SDS011;11585;51.450;-0.240;2023-12-20T12:09:14;0.80;;;0.80;;
22837;SDS011;11585;51.450;-0.240;2023-12-20T12:11:40;0.80;;;0.80;;
22837;SDS011;11585;51.450;-0.240;2023-12-20T12:14:06;0.90;;;0.90;;
22837;SDS011;11585;51.450;-0.240;2023-12-20T12:16:32;0.80;;;0.80;;
22837;SDS011;11585;51.450;-0.240;2023-12-20T12:21:47;0.80;;;0.80;;
22837;SDS011;11585;51.450;-0.240;2023-12-20T12:24:12;0.80;;;0.80;;
22837;SDS011;11585;51.450;-0.240;2023-12-20T12:26:38;0.80;;;0.80;;
22837;SDS011;11585;51.450;-0.240;2023-12-20T12:31:50;0.80;;;0.80;;
22837;SDS011;11585;51.450;-0.240;2023-12-20T12:34:16;0.80;;;0.80;;
22837;SDS011;11585;51.450;-0.240;2023-12-20T12:36:43;0.88;;;0.88;;
22837;SDS011;11585;51.450;-0.240;2023-12-20T12:39:13;0.80;;;0.80;;
22837;SDS011;11585;51.450;-0.240;2023-12-20T12:41:47;0.80;;;0.80;;
22837;SDS011;11585;51.450;-0.240;2023-12-20T12:44:13;0.80;;;0.80;;
22837;SDS011;11585;51.450;-0.240;2023-12-20T12:46:38;0.80;;;0.80;;
22837;SDS011;11585;51.450;-0.240;2023-12-20T12:51:49;0.80;;;0.80;;
22837;SDS011;11585;51.450;-0.240;2023-12-20T12:54:14;0.80;;;0.80;;
22837;SDS011;11585;51.450;-0.240;2023-12-20T12:56:43;0.82;;;0.82;;
22837;SDS011;11585;51.450;-0.240;2023-12-20T13:01:59;0.80;;;0.80;;
22837;SDS011;11585;51.450;-0.240;2023-12-20T13:04:25;0.80;;;0.80;;
22837;SDS011;11585;51.450;-0.240;2023-12-20T13:06:51;0.80;;;0.80;;
22837;SDS011;11585;51.450;-0.240;2023-12-20T13:12:02;0.80;;;0.80;;
22837;SDS011;11585;51.450;-0.240;2023-12-20T13:14:30;0.80;;;0.80;;
22837;SDS011;11585;51.450;-0.240;2023-12-20T13:16:58;0.70;;;0.70;;
22837;SDS011;11585;51.450;-0.240;2023-12-20T13:19:24;0.80;;;0.80;;
22837;SDS011;11585;51.450;-0.240;2023-12-20T13:21:49;0.80;;;0.80;;
22837;SDS011;11585;51.450;-0.240;2023-12-20T13:24:15;0.70;;;0.70;;
22837;SDS011;11585;51.450;-0.240;2023-12-20T13:26:41;0.80;;;0.80;;
22837;SDS011;11585;51.450;-0.240;2023-12-20T13:29:07;0.85;;;0.85;;
22837;SDS011;11585;51.450;-0.240;2023-12-20T13:31:32;0.80;;;0.80;;
22837;SDS011;11585;51.450;-0.240;2023-12-20T13:33:58;0.82;;;0.82;;
22837;SDS011;11585;51.450;-0.240;2023-12-20T13:36:25;0.80;;;0.80;;
22837;SDS011;11585;51.450;-0.240;2023-12-20T13:38:51;0.80;;;0.80;;
22837;SDS011;11585;51.450;-0.240;2023-12-20T13:41:18;0.80;;;0.80;;
22837;SDS011;11585;51.450;-0.240;2023-12-20T13:43:43;0.90;;;0.90;;
22837;SDS011;11585;51.450;-0.240;2023-12-20T13:46:10;0.80;;;0.80;;
22837;SDS011;11585;51.450;-0.240;2023-12-20T13:48:36;0.80;;;0.80;;
22837;SDS011;11585;51.450;-0.240;2023-12-20T13:51:03;0.80;;;0.80;;
22837;SDS011;11585;51.450;-0.240;2023-12-20T13:53:29;0.80;;;0.80;;
22837;SDS011;11585;51.450;-0.240;2023-12-20T13:55:55;0.80;;;0.80;;
22837;SDS011;11585;51.450;-0.240;2023-12-20T13:58:20;0.90;;;0.90;;
22837;SDS011;11585;51.450;-0.240;2023-12-20T14:04:08;0.80;;;0.80;;
22837;SDS011;11585;51.450;-0.240;2023-12-20T14:06:33;0.80;;;0.80;;
22837;SDS011;11585;51.450;-0.240;2023-12-20T14:09:00;0.80;;;0.80;;
22837;SDS011;11585;51.450;-0.240;2023-12-20T14:11:26;0.80;;;0.80;;
22837;SDS011;11585;51.450;-0.240;2023-12-20T14:13:52;0.80;;;0.80;;
22837;SDS011;11585;51.450;-0.240;2023-12-20T14:16:22;0.80;;;0.80;;
22837;SDS011;11585;51.450;-0.240;2023-12-20T14:18:48;0.80;;;0.80;;
22837;SDS011;11585;51.450;-0.240;2023-12-20T14:21:14;0.80;;;0.80;;
22837;SDS011;11585;51.450;-0.240;2023-12-20T14:23:40;0.80;;;0.80;;
22837;SDS011;11585;51.450;-0.240;2023-12-20T14:26:05;0.80;;;0.80;;
22837;SDS011;11585;51.450;-0.240;2023-12-20T14:28:31;0.80;;;0.80;;
22837;SDS011;11585;51.450;-0.240;2023-12-20T14:34:01;0.80;;;0.80;;
22837;SDS011;11585;51.450;-0.240;2023-12-20T14:36:29;0.90;;;0.90;;
22837;SDS011;11585;51.450;-0.240;2023-12-20T14:38:57;0.70;;;0.70;;
22837;SDS011;11585;51.450;-0.240;2023-12-20T14:43:58;0.70;;;0.70;;
22837;SDS011;11585;51.450;-0.240;2023-12-20T14:46:24;0.80;;;0.80;;
22837;SDS011;11585;51.450;-0.240;2023-12-20T14:48:51;0.80;;;0.80;;
22837;SDS011;11585;51.450;-0.240;2023-12-20T14:51:16;0.80;;;0.80;;
22837;SDS011;11585;51.450;-0.240;2023-12-20T14:56:13;0.70;;;0.70;;
22837;SDS011;11585;51.450;-0.240;2023-12-20T14:58:39;0.70;;;0.70;;
22837;SDS011;11585;51.450;-0.240;2023-12-20T15:01:05;0.80;;;0.80;;
22837;SDS011;11585;51.450;-0.240;2023-12-20T15:06:04;0.80;;;0.80;;
22837;SDS011;11585;51.450;-0.240;2023-12-20T15:08:31;0.73;;;0.73;;
22837;SDS011;11585;51.450;-0.240;2023-12-20T15:10:56;0.80;;;0.80;;
22837;SDS011;11585;51.450;-0.240;2023-12-20T15:16:28;0.70;;;0.70;;
22837;SDS011;11585;51.450;-0.240;2023-12-20T15:18:54;0.73;;;0.73;;
22837;SDS011;11585;51.450;-0.240;2023-12-20T15:21:20;0.80;;;0.80;;
22837;SDS011;11585;51.450;-0.240;2023-12-20T15:27:03;0.70;;;0.70;;
22837;SDS011;11585;51.450;-0.240;2023-12-20T15:29:30;0.70;;;0.70;;
22837;SDS011;11585;51.450;-0.240;2023-12-20T15:31:56;0.80;;;0.80;;
22837;SDS011;11585;51.450;-0.240;2023-12-20T15:34:23;0.80;;;0.80;;
22837;SDS011;11585;51.450;-0.240;2023-12-20T15:36:48;0.80;;;0.80;;
22837;SDS011;11585;51.450;-0.240;2023-12-20T15:39:14;0.80;;;0.80;;
22837;SDS011;11585;51.450;-0.240;2023-12-20T15:41:40;0.80;;;0.80;;
22837;SDS011;11585;51.450;-0.240;2023-12-20T15:44:06;0.80;;;0.80;;
22837;SDS011;11585;51.450;-0.240;2023-12-20T15:46:31;0.70;;;0.70;;
22837;SDS011;11585;51.450;-0.240;2023-12-20T15:48:57;0.77;;;0.77;;
22837;SDS011;11585;51.450;-0.240;2023-12-20T15:51:23;0.80;;;0.80;;
22837;SDS011;11585;51.450;-0.240;2023-12-20T15:57:11;0.70;;;0.70;;
22837;SDS011;11585;51.450;-0.240;2023-12-20T15:59:37;0.80;;;0.80;;
22837;SDS011;11585;51.450;-0.240;2023-12-20T16:02:03;0.75;;;0.75;;
22837;SDS011;11585;51.450;-0.240;2023-12-20T16:04:29;0.70;;;0.70;;
22837;SDS011;11585;51.450;-0.240;2023-12-20T16:06:54;0.80;;;0.80;;
22837;SDS011;11585;51.450;-0.240;2023-12-20T16:09:20;0.70;;;0.70;;
22837;SDS011;11585;51.450;-0.240;2023-12-20T16:11:45;0.80;;;0.80;;
22837;SDS011;11585;51.450;-0.240;2023-12-20T16:14:13;0.75;;;0.75;;
22837;SDS011;11585;51.450;-0.240;2023-12-20T16:16:42;0.80;;;0.80;;
22837;SDS011;11585;51.450;-0.240;2023-12-20T16:19:09;0.70;;;0.70;;
22837;SDS011;11585;51.450;-0.240;2023-12-20T16:21:34;0.70;;;0.70;;
22837;SDS011;11585;51.450;-0.240;2023-12-20T16:26:49;0.80;;;0.80;;
22837;SDS011;11585;51.450;-0.240;2023-12-20T16:29:15;0.70;;;0.70;;
22837;SDS011;11585;51.450;-0.240;2023-12-20T16:31:40;0.70;;;0.70;;
22837;SDS011;11585;51.450;-0.240;2023-12-20T16:37:28;0.70;;;0.70;;
22837;SDS011;11585;51.450;-0.240;2023-12-20T16:39:54;0.70;;;0.70;;
22837;SDS011;11585;51.450;-0.240;2023-12-20T16:42:22;0.70;;;0.70;;
22837;SDS011;11585;51.450;-0.240;2023-12-20T16:44:47;0.70;;;0.70;;
22837;SDS011;11585;51.450;-0.240;2023-12-20T16:47:13;0.70;;;0.70;;
22837;SDS011;11585;51.450;-0.240;2023-12-20T16:49:39;0.70;;;0.70;;
22837;SDS011;11585;51.450;-0.240;2023-12-20T16:52:05;0.70;;;0.70;;
22837;SDS011;11585;51.450;-0.240;2023-12-20T16:54:30;0.60;;;0.60;;
22837;SDS011;11585;51.450;-0.240;2023-12-20T16:56:56;0.70;;;0.70;;